Time;durP1;ratioP1;P1;durP2;ratioP2;P2;SDS_P1;SDS_P2;PMS_P1;PMS_P2;Temp;Humidity;BMP_temperature;BMP_pressure;BME280_temperature;BME280_humidity;BME280_pressure;Samples;Min_cycle;Max_cycle;Signal;HPM_P1;HPM_P2
2023/10/24 00:01:00;;;;;;;1.50;1.40;;;22.20;44.50;;;;;;5016768;28;20219;-65
2023/10/24 00:03:26;;;;;;;1.70;1.60;;;22.20;44.50;;;;;;5020101;28;20537;-65
2023/10/24 00:05:52;;;;;;;1.53;1.43;;;22.20;45.30;;;;;;5013347;28;20227;-65
2023/10/24 00:08:17;;;;;;;3.10;1.80;;;22.20;44.60;;;;;;5044712;28;20242;-66
2023/10/24 00:10:43;;;;;;;1.70;1.60;;;22.10;44.40;;;;;;5013501;28;20230;-66
2023/10/24 00:13:09;;;;;;;1.60;1.50;;;22.20;44.60;;;;;;5010494;28;20246;-65
2023/10/24 00:15:34;;;;;;;2.17;1.70;;;22.10;44.40;;;;;;5010304;28;21112;-65
2023/10/24 00:18:00;;;;;;;1.63;1.53;;;22.10;44.50;;;;;;5013915;28;20222;-65
2023/10/24 00:20:25;;;;;;;1.53;1.43;;;22.10;44.40;;;;;;5010291;28;20675;-66
2023/10/24 00:22:51;;;;;;;1.60;1.50;;;22.10;44.50;;;;;;5012999;28;21384;-65
2023/10/24 00:25:17;;;;;;;1.70;1.60;;;22.10;44.50;;;;;;5020695;28;20285;-65
2023/10/24 00:27:42;;;;;;;1.80;1.70;;;22.10;44.40;;;;;;5020627;28;20258;-66
2023/10/24 00:30:08;;;;;;;1.80;1.70;;;22.10;44.40;;;;;;5031047;28;20226;-66
2023/10/24 00:32:34;;;;;;;1.40;1.30;;;22.10;44.50;;;;;;5035263;28;20573;-66
2023/10/24 00:34:59;;;;;;;1.50;1.40;;;22.10;44.50;;;;;;5031506;28;22914;-65
2023/10/24 00:37:25;;;;;;;1.53;1.40;;;22.10;44.40;;;;;;5032977;28;20222;-65
2023/10/24 00:39:50;;;;;;;2.23;2.00;;;22.10;44.50;;;;;;5041712;28;20709;-65
2023/10/24 00:42:16;;;;;;;1.40;1.30;;;22.10;44.50;;;;;;5031122;28;20289;-65
2023/10/24 00:44:41;;;;;;;1.70;1.60;;;22.10;44.50;;;;;;5018735;28;20995;-66
2023/10/24 00:47:07;;;;;;;2.27;1.70;;;22.10;44.60;;;;;;5032545;28;20222;-66
2023/10/24 00:49:32;;;;;;;1.63;1.53;;;22.10;44.50;;;;;;5038355;28;20226;-65
2023/10/24 00:51:59;;;;;;;1.53;1.43;;;22.10;44.50;;;;;;5040743;28;20237;-65
2023/10/24 00:54:27;;;;;;;1.40;1.30;;;22.10;44.50;;;;;;5031516;28;20242;-65
2023/10/24 00:56:53;;;;;;;1.40;1.30;;;22.10;44.50;;;;;;5030619;28;20525;-65
2023/10/24 00:59:23;;;;;;;1.70;1.60;;;22.10;44.50;;;;;;5027995;28;20490;-65
2023/10/24 01:01:49;;;;;;;1.30;1.20;;;22.10;44.60;;;;;;5017173;28;20463;-65
2023/10/24 01:04:14;;;;;;;1.63;1.53;;;22.10;44.60;;;;;;5033377;28;20458;-65
2023/10/24 01:06:40;;;;;;;3.23;1.50;;;22.10;44.60;;;;;;5030748;28;20524;-65
2023/10/24 01:09:05;;;;;;;1.57;1.47;;;22.10;44.60;;;;;;5030261;28;20246;-66
2023/10/24 01:11:31;;;;;;;1.50;1.40;;;22.10;44.60;;;;;;5028920;28;20256;-66
2023/10/24 01:13:59;;;;;;;1.40;1.30;;;22.10;44.60;;;;;;5031181;28;20730;-66
2023/10/24 01:16:25;;;;;;;1.30;1.20;;;22.10;44.60;;;;;;5031548;28;20225;-66
2023/10/24 01:18:50;;;;;;;1.90;1.30;;;22.10;44.60;;;;;;5031802;28;20524;-65
2023/10/24 01:21:16;;;;;;;1.47;1.37;;;22.10;44.60;;;;;;5030781;28;20229;-65
2023/10/24 01:23:43;;;;;;;1.33;1.23;;;22.10;44.60;;;;;;5031227;28;20222;-66
2023/10/24 01:26:10;;;;;;;1.50;1.40;;;22.10;44.60;;;;;;5030542;28;21030;-66
2023/10/24 01:28:42;;;;;;;1.50;1.40;;;22.10;44.60;;;;;;5032329;28;20455;-66
2023/10/24 01:33:43;;;;;;;1.70;1.60;;;22.10;44.60;;;;;;3835990;22;20617;-85
2023/10/24 01:36:09;;;;;;;1.40;1.30;;;22.10;44.60;;;;;;4964356;28;20474;-84
2023/10/24 01:38:34;;;;;;;1.80;1.43;;;22.10;44.60;;;;;;4965408;28;20603;-84
2023/10/24 01:41:00;;;;;;;1.40;1.30;;;22.10;44.60;;;;;;4967863;28;20229;-84
2023/10/24 01:43:26;;;;;;;1.50;1.40;;;22.10;44.60;;;;;;4974202;28;20224;-85
2023/10/24 01:45:51;;;;;;;1.50;1.40;;;22.10;44.60;;;;;;4968501;28;20224;-84
2023/10/24 01:48:17;;;;;;;1.40;1.30;;;22.10;44.60;;;;;;4966718;28;20227;-85
2023/10/24 01:50:43;;;;;;;1.47;1.37;;;22.10;44.60;;;;;;4968487;28;20278;-86
2023/10/24 01:53:08;;;;;;;1.30;1.20;;;22.10;44.60;;;;;;4951963;28;20450;-86
2023/10/24 01:55:34;;;;;;;1.50;1.40;;;22.10;44.70;;;;;;4967086;28;20252;-84
2023/10/24 01:57:59;;;;;;;1.50;1.40;;;22.10;44.70;;;;;;4967661;28;20228;-85
2023/10/24 02:00:25;;;;;;;1.20;1.10;;;22.10;44.60;;;;;;4955618;28;20644;-84
2023/10/24 02:02:53;;;;;;;1.53;1.40;;;22.10;44.70;;;;;;4969156;28;20282;-85
2023/10/24 02:05:19;;;;;;;1.23;1.13;;;22.10;44.70;;;;;;4967320;28;20317;-84
2023/10/24 02:07:44;;;;;;;1.40;1.30;;;22.10;44.70;;;;;;4972694;28;20538;-84
2023/10/24 02:10:10;;;;;;;1.40;1.30;;;22.10;44.70;;;;;;4968740;28;20216;-84
2023/10/24 02:12:37;;;;;;;1.33;1.23;;;22.00;44.60;;;;;;4955798;28;20244;-84
2023/10/24 02:15:05;;;;;;;1.57;1.30;;;22.10;44.70;;;;;;4946595;28;20248;-85
2023/10/24 02:17:30;;;;;;;1.23;1.17;;;22.10;45.50;;;;;;4968187;28;20497;-84
2023/10/24 02:19:56;;;;;;;1.53;1.43;;;22.10;44.70;;;;;;4968265;28;20549;-84
2023/10/24 02:22:21;;;;;;;1.43;1.33;;;22.00;44.70;;;;;;4952354;28;20230;-85
2023/10/24 02:24:47;;;;;;;1.47;1.37;;;22.00;44.60;;;;;;4966023;28;20354;-85
2023/10/24 02:27:13;;;;;;;1.73;1.20;;;22.00;44.70;;;;;;4969644;28;20317;-85
2023/10/24 02:29:38;;;;;;;1.70;1.60;;;22.00;44.70;;;;;;4949917;28;20283;-86
2023/10/24 02:32:05;;;;;;;1.57;1.47;;;22.00;44.60;;;;;;4952457;28;20227;-84
2023/10/24 02:34:30;;;;;;;1.77;1.37;;;22.00;44.60;;;;;;4967866;28;20227;-84
2023/10/24 02:36:56;;;;;;;1.20;1.10;;;22.00;44.70;;;;;;4970717;28;20473;-85
2023/10/24 02:39:21;;;;;;;1.40;1.30;;;22.00;44.60;;;;;;4951328;28;20857;-85
2023/10/24 02:41:47;;;;;;;1.30;1.20;;;22.00;44.70;;;;;;4969286;28;20795;-84
2023/10/24 02:44:13;;;;;;;1.53;1.43;;;22.00;44.70;;;;;;4973550;28;20269;-86
2023/10/24 02:46:38;;;;;;;2.07;1.97;;;22.00;44.70;;;;;;4989398;28;20224;-85
2023/10/24 02:49:04;;;;;;;1.47;1.37;;;22.00;44.70;;;;;;4982286;28;20293;-85
2023/10/24 02:51:29;;;;;;;1.40;1.30;;;22.00;44.70;;;;;;4967420;28;20291;-85
2023/10/24 02:53:55;;;;;;;1.47;1.37;;;22.00;44.70;;;;;;4970292;28;20322;-85
2023/10/24 02:56:20;;;;;;;1.47;1.37;;;22.00;44.70;;;;;;4970359;28;20753;-84
2023/10/24 02:58:46;;;;;;;1.23;1.13;;;22.00;44.70;;;;;;4968849;28;20718;-85
2023/10/24 03:01:11;;;;;;;1.23;1.00;;;22.00;44.70;;;;;;4966766;28;20331;-85
2023/10/24 03:03:37;;;;;;;1.30;1.20;;;22.00;44.70;;;;;;4967294;28;20234;-84
2023/10/24 03:06:16;;;;;;;1.00;1.00;;;22.00;44.70;;;;;;4970484;28;20220;-83
2023/10/24 03:08:42;;;;;;;1.40;1.30;;;22.00;44.80;;;;;;4949584;28;20693;-85
2023/10/24 03:11:08;;;;;;;1.37;1.27;;;22.00;44.80;;;;;;4960990;28;20450;-84
2023/10/24 03:13:33;;;;;;;1.07;0.97;;;22.00;45.50;;;;;;4940474;28;20799;-84
2023/10/24 03:16:06;;;;;;;1.30;1.20;;;22.00;45.50;;;;;;4962740;28;20264;-84
2023/10/24 03:18:33;;;;;;;1.17;1.07;;;22.00;44.70;;;;;;4970255;28;20235;-84
2023/10/24 03:21:00;;;;;;;1.40;1.30;;;22.00;44.70;;;;;;4970060;28;20473;-85
2023/10/24 03:23:25;;;;;;;1.30;1.20;;;22.00;44.70;;;;;;4956505;28;20493;-85
2023/10/24 03:25:52;;;;;;;1.20;1.10;;;22.00;44.80;;;;;;4968910;28;20554;-84
2023/10/24 03:28:17;;;;;;;1.40;1.30;;;22.00;44.70;;;;;;4953686;28;20590;-84
2023/10/24 03:30:43;;;;;;;1.30;1.10;;;22.00;44.70;;;;;;4976539;28;20436;-84
2023/10/24 03:33:09;;;;;;;1.20;1.10;;;22.00;44.70;;;;;;4942434;28;20239;-84
2023/10/24 03:35:36;;;;;;;1.70;1.20;;;22.00;44.80;;;;;;4957056;28;20318;-86
2023/10/24 03:38:01;;;;;;;1.30;1.20;;;22.00;44.80;;;;;;4971939;28;20224;-86
2023/10/24 03:40:27;;;;;;;1.50;1.20;;;22.00;44.80;;;;;;4972861;28;21275;-85
2023/10/24 03:42:53;;;;;;;1.37;1.23;;;22.00;44.80;;;;;;4972796;28;20254;-84
2023/10/24 03:45:19;;;;;;;1.20;1.10;;;22.00;44.80;;;;;;4969665;28;20239;-85
2023/10/24 03:47:46;;;;;;;1.13;1.03;;;22.00;44.80;;;;;;4978908;28;20811;-84
2023/10/24 03:50:13;;;;;;;1.20;1.10;;;22.00;44.80;;;;;;4976323;28;20857;-84
2023/10/24 03:52:39;;;;;;;1.33;1.23;;;22.00;44.70;;;;;;4983992;28;21273;-84
2023/10/24 03:55:05;;;;;;;1.30;1.20;;;22.00;44.80;;;;;;4969884;28;20482;-85
2023/10/24 03:57:31;;;;;;;1.20;1.10;;;22.00;44.80;;;;;;4984726;28;20225;-84
2023/10/24 03:59:56;;;;;;;1.23;1.13;;;22.00;44.80;;;;;;4969883;28;20466;-84
2023/10/24 04:02:22;;;;;;;1.10;1.00;;;22.00;44.70;;;;;;4974349;28;20781;-84
2023/10/24 04:04:48;;;;;;;1.10;1.00;;;22.00;44.70;;;;;;4942940;28;20235;-87
2023/10/24 04:07:14;;;;;;;1.03;1.00;;;22.00;44.80;;;;;;4963693;28;20643;-85
2023/10/24 04:09:39;;;;;;;1.00;0.90;;;22.00;44.80;;;;;;4968962;28;20490;-85
2023/10/24 04:12:06;;;;;;;1.23;1.13;;;22.00;44.80;;;;;;4970374;28;22417;-86
2023/10/24 04:14:31;;;;;;;1.20;1.10;;;22.00;44.80;;;;;;4954763;28;20711;-85
2023/10/24 04:16:57;;;;;;;1.27;1.17;;;22.00;44.70;;;;;;4963862;28;20469;-87
2023/10/24 04:19:23;;;;;;;1.27;1.17;;;22.00;44.70;;;;;;4970012;28;20250;-85
2023/10/24 04:21:48;;;;;;;1.20;1.10;;;22.00;44.70;;;;;;4971902;28;20238;-84
2023/10/24 04:24:14;;;;;;;1.20;1.10;;;22.00;44.60;;;;;;4953918;28;20862;-85
2023/10/24 04:26:40;;;;;;;1.20;1.10;;;22.00;44.60;;;;;;4968054;28;20581;-83
2023/10/24 04:29:07;;;;;;;1.40;0.90;;;22.00;44.60;;;;;;4971647;28;20282;-86
2023/10/24 04:31:33;;;;;;;1.07;1.00;;;22.00;44.60;;;;;;4982085;28;20674;-83
2023/10/24 04:33:58;;;;;;;1.10;1.00;;;22.00;44.60;;;;;;4981119;28;20560;-85
2023/10/24 04:36:24;;;;;;;1.17;1.07;;;22.00;44.60;;;;;;4959568;28;20279;-83
2023/10/24 04:38:50;;;;;;;1.10;1.00;;;22.00;44.60;;;;;;4964042;28;20235;-84
2023/10/24 04:41:15;;;;;;;0.93;0.90;;;22.00;44.60;;;;;;4968656;28;20220;-85
2023/10/24 04:43:41;;;;;;;1.10;1.00;;;22.00;44.60;;;;;;4971497;28;21002;-84
2023/10/24 04:46:10;;;;;;;1.23;1.13;;;22.00;44.60;;;;;;4970145;28;20225;-83
2023/10/24 04:48:35;;;;;;;1.00;0.80;;;22.00;44.60;;;;;;4967467;28;21763;-85
2023/10/24 04:51:01;;;;;;;1.10;1.00;;;22.00;44.60;;;;;;4969270;28;20462;-85
2023/10/24 04:53:26;;;;;;;1.17;1.10;;;22.00;44.60;;;;;;4968955;28;20220;-84
2023/10/24 04:55:52;;;;;;;1.30;1.20;;;22.00;44.60;;;;;;4954465;28;20228;-85
2023/10/24 04:58:17;;;;;;;0.97;0.97;;;22.00;44.60;;;;;;4960269;28;20231;-84
2023/10/24 05:00:43;;;;;;;1.20;1.10;;;22.00;44.60;;;;;;4960103;28;20236;-85
2023/10/24 05:03:08;;;;;;;0.90;0.90;;;22.00;44.60;;;;;;4957682;28;20247;-85
2023/10/24 05:05:34;;;;;;;0.80;0.80;;;22.00;44.60;;;;;;4977146;28;20679;-86
2023/10/24 05:08:06;;;;;;;1.00;0.90;;;22.00;44.60;;;;;;4962762;28;20243;-84
2023/10/24 05:10:32;;;;;;;1.20;1.10;;;22.00;44.60;;;;;;4948472;28;20335;-83
2023/10/24 05:12:57;;;;;;;3.67;1.10;;;22.00;44.60;;;;;;4964737;28;20501;-84
2023/10/24 05:15:24;;;;;;;1.10;1.00;;;22.00;44.60;;;;;;4952982;28;20726;-85
2023/10/24 05:17:50;;;;;;;1.17;1.07;;;22.00;44.60;;;;;;4968493;28;20220;-88
2023/10/24 05:20:17;;;;;;;1.20;1.10;;;22.00;44.60;;;;;;4960063;28;21355;-86
2023/10/24 05:22:42;;;;;;;1.70;1.60;;;22.00;44.60;;;;;;4962126;28;20248;-86
2023/10/24 05:25:08;;;;;;;1.67;1.57;;;22.00;44.60;;;;;;4948784;28;21021;-88
2023/10/24 05:27:34;;;;;;;3.00;2.00;;;22.00;44.60;;;;;;4969907;28;20220;-85
2023/10/24 05:29:59;;;;;;;2.60;1.90;;;22.00;44.60;;;;;;4963301;28;20227;-84
2023/10/24 05:32:25;;;;;;;2.20;2.00;;;22.00;44.50;;;;;;4968508;28;20695;-87
2023/10/24 05:34:51;;;;;;;3.57;1.90;;;22.00;44.60;;;;;;4969316;28;20243;-84
2023/10/24 05:37:16;;;;;;;2.50;2.20;;;22.00;44.60;;;;;;4954411;28;20635;-86
2023/10/24 05:39:42;;;;;;;3.90;2.90;;;22.00;44.50;;;;;;4973111;28;20213;-85
2023/10/24 05:42:07;;;;;;;3.73;2.83;;;22.00;44.50;;;;;;4968109;28;20327;-89
2023/10/24 05:44:33;;;;;;;2.83;2.63;;;22.00;44.60;;;;;;4983128;28;20386;-84
2023/10/24 05:46:58;;;;;;;2.43;2.23;;;22.00;44.60;;;;;;4968422;28;20815;-84
2023/10/24 05:49:24;;;;;;;2.87;2.67;;;22.00;44.50;;;;;;4968089;28;20345;-84
2023/10/24 05:51:50;;;;;;;3.33;2.93;;;22.00;44.50;;;;;;4971868;28;20263;-84
2023/10/24 05:54:16;;;;;;;2.80;2.60;;;22.00;44.50;;;;;;4972435;28;20243;-86
2023/10/24 05:56:41;;;;;;;3.70;2.57;;;22.00;44.50;;;;;;4970832;28;20852;-85
2023/10/24 05:59:07;;;;;;;3.07;2.77;;;22.00;44.50;;;;;;4970126;28;20268;-85
2023/10/24 06:01:32;;;;;;;2.70;2.50;;;22.00;44.50;;;;;;4965072;28;21156;-84
2023/10/24 06:03:58;;;;;;;3.80;3.50;;;22.00;44.50;;;;;;4963406;28;20233;-84
2023/10/24 06:06:23;;;;;;;3.43;3.13;;;22.00;44.50;;;;;;4973312;28;20211;-84
2023/10/24 06:08:49;;;;;;;3.50;3.20;;;22.00;44.50;;;;;;4972353;28;20688;-85
2023/10/24 06:11:15;;;;;;;2.83;2.63;;;22.00;45.20;;;;;;4948673;28;20216;-86
2023/10/24 06:13:41;;;;;;;3.70;3.00;;;22.00;44.50;;;;;;4966432;28;20794;-85
2023/10/24 06:16:11;;;;;;;3.57;3.27;;;22.00;44.50;;;;;;4969246;28;20450;-84
2023/10/24 06:18:37;;;;;;;3.57;3.00;;;22.00;44.50;;;;;;4967136;28;20240;-84
2023/10/24 06:21:06;;;;;;;3.93;3.60;;;22.00;44.50;;;;;;4970583;28;21033;-85
2023/10/24 06:23:33;;;;;;;3.53;2.87;;;22.00;44.50;;;;;;4969683;28;20460;-85
2023/10/24 06:25:59;;;;;;;3.63;3.30;;;22.00;44.50;;;;;;4965622;28;20466;-84
2023/10/24 06:28:25;;;;;;;3.60;3.17;;;22.00;44.50;;;;;;4947581;28;20523;-86
2023/10/24 06:31:01;;;;;;;4.47;3.50;;;22.00;44.50;;;;;;4969258;28;20965;-87
2023/10/24 06:33:27;;;;;;;3.20;3.00;;;22.00;44.50;;;;;;4969556;28;20242;-85
2023/10/24 06:35:53;;;;;;;3.33;3.10;;;22.00;44.50;;;;;;4950680;28;20466;-85
2023/10/24 06:38:19;;;;;;;4.07;3.70;;;22.00;44.50;;;;;;4967758;28;20459;-84
2023/10/24 06:40:45;;;;;;;3.70;3.30;;;22.00;44.50;;;;;;4970186;28;20470;-86
2023/10/24 06:43:11;;;;;;;6.53;3.83;;;22.00;44.60;;;;;;4931152;28;20220;-88
2023/10/24 06:45:37;;;;;;;4.83;3.20;;;22.00;44.50;;;;;;4980290;28;20826;-84
2023/10/24 06:48:06;;;;;;;4.03;3.73;;;22.00;44.50;;;;;;4983766;28;20457;-85
2023/10/24 06:50:32;;;;;;;3.67;3.37;;;22.00;44.50;;;;;;4968015;28;20359;-84
2023/10/24 06:52:57;;;;;;;3.40;3.10;;;22.00;44.50;;;;;;4970039;28;20462;-85
2023/10/24 06:55:23;;;;;;;3.77;3.30;;;22.00;44.50;;;;;;4972451;28;20990;-85
2023/10/24 06:57:49;;;;;;;3.50;3.00;;;22.00;44.50;;;;;;4973415;28;20238;-84
2023/10/24 07:00:15;;;;;;;3.67;3.37;;;22.00;44.50;;;;;;4969112;28;20465;-84
2023/10/24 07:02:40;;;;;;;3.57;3.27;;;22.00;44.50;;;;;;4974739;28;20676;-84
2023/10/24 07:05:06;;;;;;;3.73;3.20;;;22.00;44.50;;;;;;4973813;28;20224;-87
2023/10/24 07:07:32;;;;;;;3.50;3.20;;;22.00;44.60;;;;;;4973897;28;20225;-85
2023/10/24 07:09:57;;;;;;;4.60;4.00;;;22.00;44.50;;;;;;4974231;28;20278;-85
2023/10/24 07:12:23;;;;;;;3.70;3.40;;;22.00;44.50;;;;;;4974959;28;20224;-84
2023/10/24 07:14:53;;;;;;;4.60;3.20;;;22.00;44.50;;;;;;4971452;28;20298;-86
2023/10/24 07:17:19;;;;;;;3.30;3.10;;;22.00;44.50;;;;;;4975233;28;20216;-85
2023/10/24 07:19:45;;;;;;;3.27;3.00;;;22.00;44.50;;;;;;4974044;28;20476;-84
2023/10/24 07:22:10;;;;;;;3.50;3.20;;;22.00;44.50;;;;;;4974249;28;20463;-84
2023/10/24 07:24:36;;;;;;;3.87;3.57;;;21.90;44.30;;;;;;4974716;28;20279;-86
2023/10/24 07:27:03;;;;;;;3.30;3.10;;;22.00;44.50;;;;;;4959763;28;20316;-85
2023/10/24 07:29:29;;;;;;;3.87;3.03;;;22.00;44.50;;;;;;4974251;28;20252;-84
2023/10/24 07:31:54;;;;;;;4.07;3.57;;;21.90;44.40;;;;;;4979005;28;20462;-86
2023/10/24 07:34:20;;;;;;;3.73;3.43;;;22.00;44.60;;;;;;4995765;28;20251;-85
2023/10/24 07:36:45;;;;;;;3.70;3.40;;;22.00;44.50;;;;;;4980311;28;20235;-84
2023/10/24 07:39:14;;;;;;;3.00;2.80;;;21.90;44.30;;;;;;4978547;28;20223;-85
2023/10/24 07:41:39;;;;;;;4.20;3.20;;;22.00;44.50;;;;;;4978896;28;20238;-84
2023/10/24 07:44:05;;;;;;;6.13;3.07;;;22.00;44.50;;;;;;4968348;28;20469;-85
2023/10/24 07:46:31;;;;;;;3.77;3.00;;;21.90;44.30;;;;;;4968770;28;20230;-84
2023/10/24 07:48:57;;;;;;;2.30;2.10;;;21.90;44.30;;;;;;4977652;28;20316;-85
2023/10/24 07:51:27;;;;;;;4.00;3.70;;;21.90;44.30;;;;;;4981147;28;20224;-86
2023/10/24 07:53:53;;;;;;;5.40;2.73;;;21.90;44.30;;;;;;4976726;28;21209;-84
2023/10/24 07:56:18;;;;;;;4.17;3.80;;;21.90;44.40;;;;;;4977668;28;20497;-84
2023/10/24 07:58:44;;;;;;;3.60;3.30;;;21.90;44.30;;;;;;4980304;28;20220;-87
2023/10/24 08:01:09;;;;;;;3.00;2.80;;;21.90;44.30;;;;;;4959067;28;20224;-87
2023/10/24 08:03:35;;;;;;;3.67;3.27;;;21.90;44.40;;;;;;4975021;28;21309;-84
2023/10/24 08:06:00;;;;;;;3.37;3.07;;;21.90;44.40;;;;;;4952934;28;20221;-84
2023/10/24 08:08:27;;;;;;;3.10;2.80;;;21.90;44.40;;;;;;4957894;28;20224;-84
2023/10/24 08:10:52;;;;;;;3.37;3.13;;;21.90;44.40;;;;;;4974847;28;20235;-84
2023/10/24 08:13:18;;;;;;;2.83;2.63;;;21.90;44.40;;;;;;4972814;28;20465;-85
2023/10/24 08:15:44;;;;;;;3.20;3.00;;;21.90;44.40;;;;;;4970615;28;20707;-86
2023/10/24 08:18:10;;;;;;;3.37;3.13;;;21.90;44.40;;;;;;4973328;28;20665;-84
2023/10/24 08:20:35;;;;;;;3.00;2.80;;;21.90;44.30;;;;;;4973108;28;20449;-85
2023/10/24 08:23:01;;;;;;;3.50;3.13;;;21.90;44.40;;;;;;4987649;28;20225;-84
2023/10/24 08:25:26;;;;;;;2.90;2.70;;;21.90;44.40;;;;;;4971818;28;20235;-84
2023/10/24 08:27:52;;;;;;;2.97;2.67;;;21.90;44.40;;;;;;4974324;28;20231;-85
2023/10/24 08:30:18;;;;;;;2.80;2.60;;;21.90;44.40;;;;;;4971991;28;20220;-88
2023/10/24 08:32:43;;;;;;;2.33;2.23;;;21.90;44.50;;;;;;4961267;28;20243;-85
2023/10/24 08:35:09;;;;;;;3.37;3.07;;;21.90;44.40;;;;;;4947733;28;20271;-84
2023/10/24 08:37:35;;;;;;;2.67;2.47;;;21.90;45.20;;;;;;4963655;28;20315;-84
2023/10/24 08:40:00;;;;;;;3.07;2.20;;;21.90;44.50;;;;;;4963668;28;20221;-84
2023/10/24 08:42:26;;;;;;;2.90;2.33;;;21.90;44.50;;;;;;4967970;28;20282;-85
2023/10/24 08:44:52;;;;;;;2.50;2.30;;;21.90;44.50;;;;;;4955155;28;20350;-84
2023/10/24 08:47:20;;;;;;;3.03;2.73;;;21.90;44.50;;;;;;4971987;28;20335;-84
2023/10/24 08:49:45;;;;;;;2.90;2.70;;;21.90;44.50;;;;;;4974154;28;20462;-88
2023/10/24 08:52:11;;;;;;;2.90;2.60;;;21.90;44.50;;;;;;4970991;28;20447;-85
2023/10/24 08:54:37;;;;;;;3.00;2.60;;;21.90;44.50;;;;;;4972062;28;20240;-84
2023/10/24 08:57:03;;;;;;;2.80;2.60;;;21.90;44.50;;;;;;4957603;28;20228;-84
2023/10/24 08:59:37;;;;;;;2.80;2.60;;;21.90;44.50;;;;;;4971495;28;20225;-85
2023/10/24 09:02:03;;;;;;;3.30;3.07;;;21.90;44.50;;;;;;4978046;28;20461;-84
2023/10/24 09:04:31;;;;;;;3.17;2.97;;;21.90;44.50;;;;;;4978077;28;20469;-85
2023/10/24 09:06:57;;;;;;;3.00;2.80;;;21.90;44.50;;;;;;4975644;28;20620;-85
2023/10/24 09:09:25;;;;;;;2.40;2.20;;;21.90;44.50;;;;;;4987579;28;20581;-84
2023/10/24 09:11:59;;;;;;;2.60;2.40;;;21.90;44.50;;;;;;4985163;28;20227;-86
2023/10/24 09:14:26;;;;;;;2.67;2.50;;;21.90;44.50;;;;;;4976571;28;20620;-84
2023/10/24 09:16:57;;;;;;;3.00;2.80;;;21.90;44.50;;;;;;4972569;28;20524;-84
2023/10/24 09:19:22;;;;;;;2.13;2.03;;;21.90;44.50;;;;;;4964896;28;20465;-85
2023/10/24 09:21:50;;;;;;;2.53;2.33;;;21.90;44.60;;;;;;4983748;28;20473;-86
2023/10/24 09:24:16;;;;;;;2.40;2.20;;;21.90;44.60;;;;;;4949889;28;20228;-85
2023/10/24 09:26:56;;;;;;;2.70;2.50;;;21.90;44.50;;;;;;4967001;28;20485;-85
2023/10/24 09:29:24;;;;;;;2.50;2.30;;;21.90;44.50;;;;;;4969810;28;20463;-84
2023/10/24 09:31:50;;;;;;;2.60;2.40;;;21.90;44.50;;;;;;4971710;28;20465;-85
2023/10/24 09:34:17;;;;;;;2.40;2.20;;;21.90;44.50;;;;;;4984788;28;20588;-85
2023/10/24 09:36:44;;;;;;;2.10;1.90;;;21.90;44.50;;;;;;4974226;28;20461;-84
2023/10/24 09:39:11;;;;;;;2.67;2.47;;;21.90;45.20;;;;;;4968359;28;21047;-88
2023/10/24 09:41:41;;;;;;;3.10;2.87;;;21.90;44.50;;;;;;4970060;28;20512;-85
2023/10/24 09:44:08;;;;;;;2.23;2.13;;;21.90;44.50;;;;;;4971139;28;20462;-85
2023/10/24 09:46:37;;;;;;;2.67;2.47;;;21.90;44.50;;;;;;4968579;28;20482;-84
2023/10/24 09:49:07;;;;;;;3.00;2.70;;;21.90;44.50;;;;;;4984973;28;20466;-85
2023/10/24 09:51:40;;;;;;;2.23;2.13;;;21.90;44.40;;;;;;4971271;28;21301;-84
2023/10/24 09:54:11;;;;;;;1.90;1.80;;;21.90;44.50;;;;;;4969980;28;21048;-87
2023/10/24 09:56:54;;;;;;;2.50;2.40;;;21.90;44.50;;;;;;4915254;28;20477;-84
2023/10/24 09:59:21;;;;;;;2.23;2.03;;;21.90;44.50;;;;;;4971625;28;20470;-85
2023/10/24 10:01:47;;;;;;;1.90;1.80;;;21.90;44.50;;;;;;4972033;28;20469;-85
2023/10/24 10:04:13;;;;;;;1.97;1.87;;;21.90;44.50;;;;;;4974826;28;20462;-85
2023/10/24 10:06:41;;;;;;;2.60;2.40;;;21.90;44.50;;;;;;4977919;28;20470;-84
2023/10/24 10:09:10;;;;;;;2.00;1.90;;;21.90;44.50;;;;;;4964159;28;20471;-85
2023/10/24 10:11:37;;;;;;;2.50;2.40;;;21.90;44.50;;;;;;4970675;28;20485;-84
2023/10/24 10:14:13;;;;;;;2.47;2.27;;;21.90;44.50;;;;;;4972300;28;20483;-87
2023/10/24 10:16:50;;;;;;;2.60;2.40;;;21.90;44.50;;;;;;4952044;28;20473;-87
2023/10/24 10:19:28;;;;;;;2.57;2.20;;;21.90;44.70;;;;;;4982923;28;20488;-86
2023/10/24 10:22:10;;;;;;;1.93;1.83;;;21.90;44.50;;;;;;4965274;28;20613;-85
2023/10/24 10:24:50;;;;;;;2.43;1.97;;;21.90;44.50;;;;;;4968172;28;20560;-86
2023/10/24 10:27:37;;;;;;;2.37;2.17;;;21.90;44.50;;;;;;4969963;28;20474;-86
2023/10/24 10:30:25;;;;;;;2.63;2.43;;;21.90;44.50;;;;;;4954012;28;20986;-85
2023/10/24 10:33:12;;;;;;;1.97;1.80;;;21.90;44.50;;;;;;4969788;28;20482;-88
2023/10/24 10:35:46;;;;;;;2.20;2.07;;;21.90;44.50;;;;;;4960679;28;20542;-84
2023/10/24 10:38:11;;;;;;;3.83;2.00;;;21.90;44.50;;;;;;4984742;28;21005;-84
2023/10/24 10:40:37;;;;;;;1.90;1.80;;;21.90;44.50;;;;;;4972875;28;20465;-84
2023/10/24 10:43:03;;;;;;;1.87;1.77;;;21.90;44.50;;;;;;4975309;28;20227;-84
2023/10/24 10:45:30;;;;;;;1.90;1.80;;;21.90;44.50;;;;;;4974138;28;20231;-85
2023/10/24 10:48:06;;;;;;;2.20;2.10;;;21.90;44.50;;;;;;4977337;28;20501;-84
2023/10/24 10:50:33;;;;;;;1.80;1.70;;;21.90;44.50;;;;;;4973120;28;20777;-88
2023/10/24 10:53:21;;;;;;;2.50;2.30;;;21.90;44.30;;;;;;4988002;28;20473;-84
2023/10/24 10:56:11;;;;;;;1.70;1.60;;;21.90;44.50;;;;;;4973357;28;20474;-85
2023/10/24 10:58:52;;;;;;;2.00;1.90;;;21.90;44.50;;;;;;4972577;28;23079;-84
2023/10/24 11:01:27;;;;;;;2.17;1.80;;;21.90;44.50;;;;;;4984870;28;20469;-84
2023/10/24 11:03:56;;;;;;;1.73;1.60;;;21.90;44.50;;;;;;4959813;28;20481;-87
2023/10/24 11:06:26;;;;;;;1.90;1.80;;;21.90;44.50;;;;;;4968877;28;20505;-84
2023/10/24 11:09:09;;;;;;;1.83;1.63;;;21.90;44.60;;;;;;4964612;28;20554;-85
2023/10/24 11:11:37;;;;;;;1.80;1.70;;;21.90;44.50;;;;;;4965129;28;20481;-85
2023/10/24 11:14:20;;;;;;;1.90;1.80;;;21.90;44.60;;;;;;4981572;28;20555;-85
2023/10/24 11:16:48;;;;;;;2.40;1.83;;;21.90;44.50;;;;;;4972272;28;20493;-85
2023/10/24 11:19:21;;;;;;;1.80;1.70;;;21.90;44.50;;;;;;4972731;28;21044;-86
2023/10/24 11:21:54;;;;;;;2.00;1.90;;;21.90;44.50;;;;;;4973309;28;20540;-85
2023/10/24 11:24:21;;;;;;;1.83;1.73;;;21.90;44.50;;;;;;4983194;28;21027;-84
2023/10/24 11:26:58;;;;;;;1.90;1.80;;;21.90;44.50;;;;;;4972659;28;20477;-87
2023/10/24 11:29:25;;;;;;;1.87;1.77;;;21.90;44.50;;;;;;4990720;28;21094;-84
2023/10/24 11:31:50;;;;;;;1.53;1.43;;;21.90;44.50;;;;;;4959048;28;21112;-84
2023/10/24 11:34:17;;;;;;;1.93;1.83;;;21.90;44.50;;;;;;4957032;28;20474;-85
2023/10/24 11:36:44;;;;;;;1.70;1.60;;;21.90;44.40;;;;;;4956980;28;20235;-85
2023/10/24 11:39:14;;;;;;;1.40;1.30;;;21.90;44.50;;;;;;4955018;28;20549;-86
2023/10/24 11:41:43;;;;;;;2.13;1.60;;;21.90;44.50;;;;;;4972598;28;20464;-84
2023/10/24 11:44:11;;;;;;;1.93;1.83;;;21.90;44.50;;;;;;4955184;28;20465;-84
2023/10/24 11:46:42;;;;;;;2.10;2.00;;;21.90;44.50;;;;;;4960016;28;20797;-84
2023/10/24 11:49:08;;;;;;;1.70;1.60;;;21.90;44.40;;;;;;4970110;28;20486;-84
2023/10/24 11:51:33;;;;;;;1.70;1.60;;;21.90;44.50;;;;;;4970704;28;20470;-85
2023/10/24 11:54:01;;;;;;;1.60;1.50;;;21.90;44.40;;;;;;4971288;28;20299;-84
2023/10/24 11:56:27;;;;;;;1.73;1.63;;;21.90;44.50;;;;;;4955378;28;20266;-86
2023/10/24 11:58:53;;;;;;;1.63;1.53;;;21.90;44.70;;;;;;4959888;28;20478;-84
2023/10/24 12:01:18;;;;;;;1.50;1.40;;;21.90;44.50;;;;;;4971606;28;20463;-85
2023/10/24 12:03:48;;;;;;;1.77;1.67;;;21.90;44.50;;;;;;4970823;28;20232;-84
2023/10/24 12:06:18;;;;;;;1.60;1.50;;;21.90;44.50;;;;;;4974660;28;20220;-85
2023/10/24 12:08:44;;;;;;;1.50;1.40;;;21.90;44.50;;;;;;4955447;28;20451;-84
2023/10/24 12:11:10;;;;;;;1.67;1.57;;;21.90;44.50;;;;;;4975556;28;20447;-84
2023/10/24 12:13:36;;;;;;;1.50;1.40;;;21.90;44.50;;;;;;4956884;28;21109;-84
2023/10/24 12:16:06;;;;;;;2.00;1.90;;;21.90;44.50;;;;;;4959743;28;20478;-84
2023/10/24 12:18:32;;;;;;;1.57;1.47;;;21.90;44.50;;;;;;4961615;28;20337;-84
2023/10/24 12:20:58;;;;;;;1.90;1.80;;;21.90;44.50;;;;;;4963719;28;20818;-84
2023/10/24 12:23:25;;;;;;;1.90;1.80;;;21.90;44.60;;;;;;4972163;28;20227;-84
2023/10/24 12:25:51;;;;;;;2.50;2.30;;;21.90;44.50;;;;;;4972620;28;20883;-85
2023/10/24 12:28:17;;;;;;;1.43;1.33;;;21.90;44.50;;;;;;4957800;28;20813;-84
2023/10/24 12:30:43;;;;;;;1.60;1.50;;;21.90;44.50;;;;;;4952336;28;20478;-84
2023/10/24 12:33:08;;;;;;;1.50;1.40;;;21.90;44.50;;;;;;4953213;28;20679;-84
2023/10/24 12:35:34;;;;;;;2.00;1.90;;;21.90;44.50;;;;;;4954937;28;20237;-83
2023/10/24 12:37:59;;;;;;;1.90;1.80;;;21.90;44.50;;;;;;4954064;28;20217;-84
2023/10/24 12:40:25;;;;;;;1.60;1.50;;;21.90;44.60;;;;;;4953221;28;20680;-84
2023/10/24 12:42:52;;;;;;;1.53;1.43;;;21.90;44.50;;;;;;4953348;28;20232;-84
2023/10/24 12:45:18;;;;;;;1.60;1.50;;;21.90;44.60;;;;;;4952338;28;20276;-85
2023/10/24 12:47:44;;;;;;;1.77;1.60;;;21.90;44.50;;;;;;4953770;28;20504;-84
2023/10/24 12:50:10;;;;;;;1.90;1.70;;;21.90;44.60;;;;;;4950275;28;21342;-84